createdAt,value
2022-11-03T00:02:51.831Z,7.93
2022-11-03T00:13:41.223Z,7.85
2022-11-03T00:19:02.567Z,7.86
2022-11-03T00:24:23.557Z,7.96
2022-11-03T00:29:44.672Z,7.97
2022-11-03T00:35:06.092Z,7.88
2022-11-03T00:40:26.903Z,7.82
2022-11-03T00:45:47.541Z,7.75
2022-11-03T00:51:08.656Z,7.73
2022-11-03T00:56:30.841Z,7.56
2022-11-03T01:01:51.680Z,7.53
2022-11-03T01:07:12.272Z,7.59
2022-11-03T01:12:32.968Z,7.53
2022-11-03T01:17:53.757Z,7.55
2022-11-03T01:23:14.570Z,7.68
2022-11-03T01:28:36.859Z,7.59
2022-11-03T01:33:57.818Z,7.44
2022-11-03T01:39:20.058Z,7.41
2022-11-03T01:44:46.489Z,7.32
2022-11-03T01:50:14.488Z,7.42
2022-11-03T01:55:40.033Z,7.38
2022-11-03T02:01:02.544Z,7.40
2022-11-03T02:06:27.438Z,7.23
2022-11-03T02:12:06.440Z,7.25
2022-11-03T02:17:30.420Z,7.32
2022-11-03T02:23:14.968Z,7.23
2022-11-03T02:28:35.653Z,7.21
2022-11-03T02:34:19.625Z,7.10
2022-11-03T02:39:57.079Z,7.04
2022-11-03T02:45:19.955Z,6.98
2022-11-03T02:50:40.687Z,6.97
2022-11-03T02:56:11.437Z,6.95
2022-11-03T03:01:47.553Z,6.99
2022-11-03T03:07:15.827Z,7.22
2022-11-03T03:12:41.740Z,7.19
2022-11-03T03:18:16.028Z,7.09
2022-11-03T03:23:48.096Z,7.04
2022-11-03T03:29:14.907Z,6.83
2022-11-03T03:34:42.783Z,6.62
2022-11-03T03:40:09.380Z,6.46
2022-11-03T03:45:31.782Z,6.47
2022-11-03T03:50:53.225Z,6.58
2022-11-03T03:56:14.584Z,6.66
2022-11-03T04:01:35.661Z,6.75
2022-11-03T04:07:15.470Z,6.70
2022-11-03T04:12:54.762Z,6.49
2022-11-03T04:18:34.605Z,6.71
2022-11-03T04:23:55.340Z,6.73
2022-11-03T04:29:15.942Z,6.85
2022-11-03T04:34:36.694Z,6.85
2022-11-03T04:40:00.613Z,6.86
2022-11-03T04:45:32.266Z,6.82
2022-11-03T04:50:55.988Z,6.70
2022-11-03T04:56:23.908Z,6.52
2022-11-03T05:01:46.124Z,6.28
2022-11-03T05:07:34.586Z,6.20
2022-11-03T05:12:57.717Z,6.14
2022-11-03T05:18:25.338Z,6.08
2022-11-03T05:23:57.976Z,6.14
2022-11-03T05:29:22.716Z,6.28
2022-11-03T05:34:48.364Z,6.07
2022-11-03T05:40:23.954Z,6.04
2022-11-03T05:45:44.889Z,6.05
2022-11-03T05:51:21.230Z,6.07
2022-11-03T05:56:41.890Z,5.95
2022-11-03T06:02:08.642Z,6.01
2022-11-03T06:07:31.737Z,5.98
2022-11-03T06:13:01.700Z,5.95
2022-11-03T06:18:25.825Z,5.86
2022-11-03T06:23:46.433Z,5.73
2022-11-03T06:29:14.311Z,5.70
2022-11-03T06:34:35.172Z,5.70
2022-11-03T06:40:24.828Z,5.65
2022-11-03T06:45:51.788Z,5.55
2022-11-03T06:51:24.573Z,5.49
2022-11-03T06:56:45.315Z,5.64
2022-11-03T07:02:41.855Z,5.32
2022-11-03T07:08:25.187Z,5.33
2022-11-03T07:13:57.008Z,5.48
2022-11-03T07:19:27.959Z,5.41
2022-11-03T07:24:51.961Z,5.51
2022-11-03T07:30:20.149Z,5.72
2022-11-03T07:41:34.288Z,6.06
2022-11-03T07:46:55.705Z,6.35
2022-11-03T07:52:21.021Z,6.67
2022-11-03T07:57:41.891Z,6.80
2022-11-03T08:03:02.691Z,6.93
2022-11-03T08:08:23.326Z,7.23
2022-11-03T08:13:44.370Z,7.51
2022-11-03T08:19:05.829Z,7.71
2022-11-03T08:24:26.833Z,7.85
2022-11-03T08:29:47.625Z,7.99
2022-11-03T08:35:08.664Z,8.20
2022-11-03T08:40:29.303Z,8.38
2022-11-03T08:46:08.120Z,8.53
2022-11-03T08:51:33.961Z,8.73
2022-11-03T08:56:54.577Z,8.87
2022-11-03T09:02:15.200Z,9.03
2022-11-03T09:13:16.669Z,9.34
2022-11-03T09:18:37.641Z,9.48
2022-11-03T09:24:00.122Z,9.61
2022-11-03T09:29:21.053Z,9.83
2022-11-03T09:34:42.076Z,9.98
2022-11-03T09:40:04.288Z,10.09
2022-11-03T09:45:25.469Z,10.23
2022-11-03T09:50:51.851Z,10.35
2022-11-03T09:56:12.575Z,10.43
2022-11-03T10:01:33.618Z,10.54
2022-11-03T10:06:58.862Z,10.71
2022-11-03T10:12:22.580Z,10.87
2022-11-03T10:17:45.559Z,11.01
2022-11-03T10:23:08.916Z,11.20
2022-11-03T10:28:29.811Z,11.37
2022-11-03T10:33:55.840Z,11.35
2022-11-03T10:39:33.414Z,11.51
2022-11-03T10:45:09.322Z,11.60
2022-11-03T10:50:30.419Z,11.66
2022-11-03T10:55:51.098Z,11.66
2022-11-03T11:01:12.245Z,11.74
2022-11-03T11:06:34.179Z,11.93
2022-11-03T11:12:23.469Z,12.07
2022-11-03T11:17:46.860Z,12.29
2022-11-03T11:23:30.845Z,12.48
2022-11-03T11:29:10.127Z,12.58
2022-11-03T11:34:34.100Z,12.61
2022-11-03T11:39:55.011Z,12.70
2022-11-03T11:45:15.851Z,12.83
2022-11-03T11:50:36.699Z,12.93
2022-11-03T11:56:00.001Z,13.00
2022-11-03T12:01:24.269Z,13.04
2022-11-03T12:12:10.627Z,13.13
2022-11-03T12:17:32.424Z,13.23
2022-11-03T12:22:53.531Z,13.25
2022-11-03T12:28:31.377Z,13.35
2022-11-03T12:33:52.434Z,13.50
2022-11-03T12:39:13.325Z,13.64
2022-11-03T12:44:34.321Z,13.73
2022-11-03T12:49:55.309Z,13.79
2022-11-03T12:55:16.137Z,13.77
2022-11-03T13:00:36.709Z,13.85
2022-11-03T13:05:57.420Z,13.93
2022-11-03T13:11:36.498Z,14.06
2022-11-03T13:16:57.257Z,14.12
2022-11-03T13:22:18.341Z,14.17
2022-11-03T13:27:39.222Z,14.28
2022-11-03T13:33:00.085Z,14.20
2022-11-03T13:38:21.417Z,14.31
2022-11-03T13:43:42.564Z,14.35
2022-11-03T14:00:24.975Z,13.93
2022-11-03T14:05:45.690Z,13.72
2022-11-03T14:11:24.954Z,13.65
2022-11-03T14:16:46.150Z,13.61
2022-11-03T14:22:06.853Z,13.57
2022-11-03T14:27:27.929Z,13.49
2022-11-03T14:32:48.737Z,13.50
2022-11-03T14:38:09.593Z,13.39
2022-11-03T14:43:35.018Z,13.31
2022-11-03T14:48:56.147Z,13.28
2022-11-03T14:54:17.224Z,13.25
2022-11-03T14:59:38.120Z,13.13
2022-11-03T15:04:59.320Z,13.02
2022-11-03T15:10:20.027Z,12.87
2022-11-03T15:15:41.714Z,12.76
2022-11-03T15:21:02.979Z,12.59
2022-11-03T15:26:23.921Z,12.47
2022-11-03T15:31:47.871Z,12.41
2022-11-03T15:37:09.152Z,12.34
2022-11-03T15:42:30.160Z,12.29
2022-11-03T15:47:54.592Z,12.18
2022-11-03T15:53:18.076Z,12.09
2022-11-03T15:58:38.918Z,12.06
2022-11-03T16:04:00.048Z,12.01
2022-11-03T16:09:21.880Z,12.02
2022-11-03T16:14:43.789Z,12.04
2022-11-03T16:20:05.273Z,11.90
2022-11-03T16:25:26.087Z,11.78
2022-11-03T16:30:51.256Z,11.63
2022-11-03T16:36:15.050Z,11.56
2022-11-03T16:41:35.853Z,11.44
2022-11-03T16:46:56.541Z,11.41
2022-11-03T16:52:17.191Z,11.37
2022-11-03T16:57:41.273Z,11.33
2022-11-03T17:03:02.328Z,11.32
2022-11-03T17:08:51.179Z,11.41
2022-11-03T17:14:13.461Z,11.43
2022-11-03T17:19:34.433Z,11.40
2022-11-03T17:24:55.275Z,11.39
2022-11-03T17:30:20.954Z,11.40
2022-11-03T17:35:43.398Z,11.40
2022-11-03T17:41:04.171Z,11.42
2022-11-03T17:46:25.045Z,11.39
2022-11-03T17:51:45.674Z,11.51
2022-11-03T17:57:06.576Z,11.51
2022-11-03T18:02:30.610Z,11.36
2022-11-03T18:07:52.578Z,11.33
2022-11-03T18:13:24.540Z,11.17
2022-11-03T18:18:45.920Z,11.00
2022-11-03T18:24:16.095Z,10.88
2022-11-03T18:29:37.017Z,10.80
2022-11-03T18:34:57.969Z,10.79
2022-11-03T18:40:20.561Z,10.77
2022-11-03T18:45:41.721Z,10.83
2022-11-03T18:51:02.690Z,10.90
2022-11-03T18:56:23.414Z,10.94
2022-11-03T19:01:44.697Z,10.88
2022-11-03T19:07:08.341Z,10.82
2022-11-03T19:12:29.369Z,10.74
2022-11-03T19:17:54.544Z,10.76
2022-11-03T19:23:15.919Z,10.80
2022-11-03T19:28:36.996Z,10.75
2022-11-03T19:33:58.231Z,10.74
2022-11-03T19:39:32.088Z,10.71
2022-11-03T19:44:53.060Z,10.65
2022-11-03T19:50:23.953Z,10.65
2022-11-03T19:55:45.068Z,10.70
2022-11-03T20:01:08.828Z,10.65
2022-11-03T20:06:30.827Z,10.58
2022-11-03T20:11:53.240Z,10.63
2022-11-03T20:17:17.255Z,10.61
2022-11-03T20:22:40.736Z,10.61
2022-11-03T20:28:12.647Z,10.55
2022-11-03T20:33:34.883Z,10.53
2022-11-03T20:38:59.344Z,10.46
2022-11-03T20:44:20.009Z,10.46
2022-11-03T20:49:40.881Z,10.46
2022-11-03T20:55:02.171Z,10.39
2022-11-03T21:00:27.137Z,10.40
2022-11-03T21:05:48.548Z,10.40
2022-11-03T21:11:23.637Z,10.46
2022-11-03T21:17:03.049Z,10.45
2022-11-03T21:28:10.970Z,10.61
2022-11-03T21:33:35.821Z,10.57
2022-11-03T21:38:56.530Z,10.55
2022-11-03T21:44:17.425Z,10.62
2022-11-03T21:49:43.905Z,10.67
2022-11-03T21:55:05.445Z,10.76
2022-11-03T22:00:26.021Z,10.80
2022-11-03T22:05:46.967Z,10.85
2022-11-03T22:11:24.048Z,10.86
2022-11-03T22:16:46.087Z,10.70
2022-11-03T22:22:33.401Z,10.57
2022-11-03T22:27:54.172Z,10.46
2022-11-03T22:33:14.941Z,10.42
2022-11-03T22:38:56.281Z,10.40
2022-11-03T22:44:35.597Z,10.41
2022-11-03T22:49:56.382Z,10.44
2022-11-03T22:55:17.009Z,10.43
2022-11-03T23:00:37.632Z,10.44
2022-11-03T23:06:02.906Z,10.54
2022-11-03T23:11:26.710Z,10.49
2022-11-03T23:16:47.608Z,10.46
2022-11-03T23:22:08.535Z,10.41
2022-11-03T23:27:29.429Z,10.45
2022-11-03T23:32:50.083Z,10.40
2022-11-03T23:38:10.996Z,10.36
2022-11-03T23:43:32.484Z,10.34
2022-11-03T23:48:53.622Z,10.27
2022-11-03T23:54:14.812Z,10.16
2022-11-03T23:59:35.801Z,10.11
